»·PEaware :: N652MA KBFL-KSNA

N652MA :: KBFL-KSNA

FLIGHT INFORMATION

Flight Status: Arrived
Operator: Privately registered:
United States
More flights under this callsign
Pilot: Anonymous 13363 (13363)
Aircraft: Unknown
(P28U)
More flights by this aircraft type
Origin: KBFL Meadows
United States
Destination: KSNA John Wayne-Orange Co
United States
More flights between these airports :: More routes between these airports
Route: +
File this flight plan on PilotEdge
Remarks:
Altitude:
(Current/Filed)
4,500ft
Speed:
(Current/Filed)
0kts
Departed: 07-Jan-18 07:29 PM
Arrived: 07-Jan-18 08:20 PM
Distance/Time
Traveled:
121nm/0:51
Distance/Time
To Go:
Arrived

Flight Plot

Page will automatically refresh every two minutes.

Flight plan parsing failed; only flown route is shown


Map Options




Map Legend


Flown Route
Filed Route
Departure Airport
Arrival Airport
Navaid (VOR, NDB)
Fix

Horizontal Profiles

Position Reports

Time Latitude Longitude Heading Altitude Ground
Speed
07-Jan-18 19:34 35.266432 -118.972386 154 3422ft 98kts
07-Jan-18 19:35 35.242383 -118.955737 153 4589ft 107kts
07-Jan-18 19:36 35.214294 -118.931615 147 5357ft 128kts
07-Jan-18 19:37 35.179334 -118.905910 149 5386ft 168kts
07-Jan-18 19:38 35.140318 -118.877099 148 5433ft 164kts
07-Jan-18 19:39 35.110942 -118.855678 148 5427ft 163kts
07-Jan-18 19:40 35.072269 -118.828943 160 5446ft 164kts
07-Jan-18 19:41 35.031140 -118.812822 161 5470ft 147kts
07-Jan-18 19:42 34.992982 -118.797461 160 5475ft 143kts
07-Jan-18 19:43 34.955492 -118.782243 160 5477ft 143kts
07-Jan-18 19:44 34.917870 -118.766933 160 5549ft 143kts
07-Jan-18 19:45 34.888065 -118.754658 160 6127ft 137kts
07-Jan-18 19:46 34.854205 -118.740384 160 6698ft 138kts
07-Jan-18 19:47 34.817595 -118.724708 160 7277ft 140kts
07-Jan-18 19:48 34.779500 -118.708178 160 7563ft 162kts
07-Jan-18 19:49 34.736252 -118.688883 160 7553ft 165kts
07-Jan-18 19:50 34.694394 -118.687846 193 7540ft 159kts
07-Jan-18 19:51 34.651855 -118.692190 180 7520ft 152kts
07-Jan-18 19:52 34.612889 -118.680182 140 7423ft 155kts
07-Jan-18 19:53 34.574957 -118.654160 171 6978ft 166kts
07-Jan-18 19:54 34.538102 -118.623713 143 6570ft 162kts
07-Jan-18 19:55 34.500932 -118.594394 154 6015ft 158kts
07-Jan-18 19:56 34.460937 -118.573176 160 5403ft 156kts
07-Jan-18 19:57 34.421049 -118.556934 162 4735ft 145kts
07-Jan-18 19:58 34.383587 -118.550507 181 4520ft 128kts
07-Jan-18 19:59 34.348550 -118.549105 176 4525ft 135kts
07-Jan-18 20:00 34.311472 -118.536710 157 4522ft 145kts
07-Jan-18 20:01 34.273691 -118.520885 163 4521ft 146kts
07-Jan-18 20:02 34.235182 -118.508437 165 4520ft 146kts
07-Jan-18 20:03 34.195704 -118.497195 167 4520ft 146kts
07-Jan-18 20:04 34.156410 -118.486618 167 4520ft 146kts
07-Jan-18 20:05 34.118088 -118.476554 167 4823ft 133kts
07-Jan-18 20:06 34.082924 -118.467310 168 5515ft 142kts
07-Jan-18 20:07 34.043172 -118.457243 169 5502ft 148kts
07-Jan-18 20:08 34.003052 -118.447332 169 5503ft 149kts
07-Jan-18 20:09 33.962643 -118.437605 170 5506ft 150kts
07-Jan-18 20:10 33.922668 -118.426052 141 5502ft 155kts
07-Jan-18 20:11 33.895516 -118.391167 135 5510ft 156kts
07-Jan-18 20:12 33.864654 -118.354773 138 5510ft 157kts
07-Jan-18 20:13 33.839910 -118.327192 140 5508ft 157kts
07-Jan-18 20:14 33.811054 -118.297269 140 5412ft 155kts
07-Jan-18 20:15 33.778831 -118.264126 138 5403ft 153kts
07-Jan-18 20:16 33.760976 -118.218491 111 5403ft 152kts
07-Jan-18 20:17 33.748636 -118.171085 106 5403ft 152kts
07-Jan-18 20:18 33.736453 -118.122621 106 5403ft 152kts
07-Jan-18 20:19 33.726983 -118.073781 88 5392ft 152kts
07-Jan-18 20:20 33.728544 -118.026490 87 4597ft 167kts
07-Jan-18 20:21 33.730003 -117.971828 87 3673ft 161kts
07-Jan-18 20:22 33.727331 -117.920700 101 2221ft 146kts
07-Jan-18 20:23 33.715276 -117.877362 116 1282ft 127kts
07-Jan-18 20:24 33.698142 -117.853396 179 565ft 77kts
07-Jan-18 20:25 33.679895 -117.864313 209 59ft 57kts
07-Jan-18 20:26 33.674385 -117.867765 202 59ft 16kts
07-Jan-18 20:27 33.673264 -117.867043 219 59ft 9kts
07-Jan-18 20:28 33.669368 -117.870688 220 59ft 18kts
07-Jan-18 20:29 33.665835 -117.873790 183 59ft 10kts
07-Jan-18 20:30 33.665163 -117.873774 264 59ft 0kts

Navigation Log

Ident Type
Flight plan parsing failed, navigation log unavailable